sensor_id;sensor_type;location;lat;lon;timestamp;pressure;altitude;pressure_sealevel;temperature;humidity
34205;BME280;20471;49.680;20.074;2023-06-10T00:01:09;96849.84;;;15.55;85.33
34205;BME280;20471;49.680;20.074;2023-06-10T00:03:56;96850.52;;;15.54;85.35
34205;BME280;20471;49.680;20.074;2023-06-10T00:06:25;96850.82;;;15.55;85.51
34205;BME280;20471;49.680;20.074;2023-06-10T00:08:53;96852.09;;;15.56;85.52
34205;BME280;20471;49.680;20.074;2023-06-10T00:11:21;96850.38;;;15.58;85.68
34205;BME280;20471;49.680;20.074;2023-06-10T00:13:49;96852.06;;;15.60;85.49
34205;BME280;20471;49.680;20.074;2023-06-10T00:16:17;96856.04;;;15.60;85.49
34205;BME280;20471;49.680;20.074;2023-06-10T00:18:46;96855.92;;;15.60;85.56
34205;BME280;20471;49.680;20.074;2023-06-10T00:21:15;96853.91;;;15.59;85.45
34205;BME280;20471;49.680;20.074;2023-06-10T00:23:43;96856.01;;;15.56;85.55
34205;BME280;20471;49.680;20.074;2023-06-10T00:26:11;96857.00;;;15.54;85.48
34205;BME280;20471;49.680;20.074;2023-06-10T00:28:39;96860.91;;;15.54;85.49
34205;BME280;20471;49.680;20.074;2023-06-10T00:31:07;96862.02;;;15.51;85.50
34205;BME280;20471;49.680;20.074;2023-06-10T00:33:36;96861.27;;;15.48;85.64
34205;BME280;20471;49.680;20.074;2023-06-10T00:36:04;96857.73;;;15.48;85.66
34205;BME280;20471;49.680;20.074;2023-06-10T00:38:32;96849.84;;;15.48;85.67
34205;BME280;20471;49.680;20.074;2023-06-10T00:41:01;96849.58;;;15.48;85.75
34205;BME280;20471;49.680;20.074;2023-06-10T00:43:29;96851.57;;;15.47;85.79
34205;BME280;20471;49.680;20.074;2023-06-10T00:45:57;96852.53;;;15.43;85.75
34205;BME280;20471;49.680;20.074;2023-06-10T00:48:26;96850.78;;;15.42;85.95
34205;BME280;20471;49.680;20.074;2023-06-10T00:50:54;96849.36;;;15.42;85.96
34205;BME280;20471;49.680;20.074;2023-06-10T00:53:23;96850.30;;;15.43;86.19
34205;BME280;20471;49.680;20.074;2023-06-10T00:55:51;96852.55;;;15.44;86.29
34205;BME280;20471;49.680;20.074;2023-06-10T00:58:19;96854.13;;;15.47;86.21
34205;BME280;20471;49.680;20.074;2023-06-10T01:00:47;96858.45;;;15.48;86.24
34205;BME280;20471;49.680;20.074;2023-06-10T01:03:16;96858.77;;;15.48;86.05
34205;BME280;20471;49.680;20.074;2023-06-10T01:05:53;96857.96;;;15.49;86.08
34205;BME280;20471;49.680;20.074;2023-06-10T01:08:47;96856.59;;;15.48;86.03
34205;BME280;20471;49.680;20.074;2023-06-10T01:11:23;96861.14;;;15.45;86.12
34205;BME280;20471;49.680;20.074;2023-06-10T01:13:53;96866.67;;;15.42;86.09
34205;BME280;20471;49.680;20.074;2023-06-10T01:16:23;96868.12;;;15.41;86.07
34205;BME280;20471;49.680;20.074;2023-06-10T01:18:52;96866.30;;;15.43;86.19
34205;BME280;20471;49.680;20.074;2023-06-10T01:21:22;96865.38;;;15.44;86.28
34205;BME280;20471;49.680;20.074;2023-06-10T01:23:54;96868.92;;;15.46;86.20
34205;BME280;20471;49.680;20.074;2023-06-10T01:26:28;96872.28;;;15.50;86.22
34205;BME280;20471;49.680;20.074;2023-06-10T01:29:13;96871.30;;;15.49;86.18
34205;BME280;20471;49.680;20.074;2023-06-10T01:31:49;96875.29;;;15.47;86.31
34205;BME280;20471;49.680;20.074;2023-06-10T01:34:21;96877.34;;;15.45;86.23
34205;BME280;20471;49.680;20.074;2023-06-10T01:36:51;96879.04;;;15.44;86.36
34205;BME280;20471;49.680;20.074;2023-06-10T01:39:24;96882.14;;;15.46;86.35
34205;BME280;20471;49.680;20.074;2023-06-10T01:41:53;96881.60;;;15.47;86.30
34205;BME280;20471;49.680;20.074;2023-06-10T01:44:23;96883.09;;;15.48;86.39
34205;BME280;20471;49.680;20.074;2023-06-10T01:46:51;96881.34;;;15.48;86.43
34205;BME280;20471;49.680;20.074;2023-06-10T01:49:19;96882.41;;;15.47;86.43
34205;BME280;20471;49.680;20.074;2023-06-10T01:51:48;96883.79;;;15.47;86.70
34205;BME280;20471;49.680;20.074;2023-06-10T01:54:16;96882.96;;;15.46;86.63
34205;BME280;20471;49.680;20.074;2023-06-10T01:56:44;96885.09;;;15.45;86.60
34205;BME280;20471;49.680;20.074;2023-06-10T01:59:12;96881.65;;;15.46;86.70
34205;BME280;20471;49.680;20.074;2023-06-10T02:01:40;96883.79;;;15.47;86.71
34205;BME280;20471;49.680;20.074;2023-06-10T02:04:08;96879.98;;;15.48;86.83
34205;BME280;20471;49.680;20.074;2023-06-10T02:06:36;96879.41;;;15.50;86.75
34205;BME280;20471;49.680;20.074;2023-06-10T02:09:04;96876.87;;;15.51;86.68
34205;BME280;20471;49.680;20.074;2023-06-10T02:11:33;96876.76;;;15.51;86.75
34205;BME280;20471;49.680;20.074;2023-06-10T02:14:01;96880.40;;;15.47;86.96
34205;BME280;20471;49.680;20.074;2023-06-10T02:16:29;96882.30;;;15.46;87.04
34205;BME280;20471;49.680;20.074;2023-06-10T02:18:57;96880.84;;;15.48;87.09
34205;BME280;20471;49.680;20.074;2023-06-10T02:21:27;96880.04;;;15.48;87.08
34205;BME280;20471;49.680;20.074;2023-06-10T02:23:55;96881.59;;;15.50;87.03
34205;BME280;20471;49.680;20.074;2023-06-10T02:26:23;96876.82;;;15.52;87.01
34205;BME280;20471;49.680;20.074;2023-06-10T02:28:52;96873.14;;;15.53;87.12
34205;BME280;20471;49.680;20.074;2023-06-10T02:31:20;96873.92;;;15.54;87.01
34205;BME280;20471;49.680;20.074;2023-06-10T02:33:51;96871.29;;;15.53;86.90
34205;BME280;20471;49.680;20.074;2023-06-10T02:36:19;96870.48;;;15.54;86.94
34205;BME280;20471;49.680;20.074;2023-06-10T02:38:48;96873.83;;;15.55;87.02
34205;BME280;20471;49.680;20.074;2023-06-10T02:41:16;96870.19;;;15.55;86.97
34205;BME280;20471;49.680;20.074;2023-06-10T02:43:44;96873.52;;;15.55;87.01
34205;BME280;20471;49.680;20.074;2023-06-10T02:46:12;96879.50;;;15.53;87.16
34205;BME280;20471;49.680;20.074;2023-06-10T02:48:42;96879.30;;;15.49;87.21
34205;BME280;20471;49.680;20.074;2023-06-10T02:51:10;96878.04;;;15.49;87.18
34205;BME280;20471;49.680;20.074;2023-06-10T02:53:39;96880.66;;;15.50;87.18
34205;BME280;20471;49.680;20.074;2023-06-10T02:56:07;96881.39;;;15.47;87.26
34205;BME280;20471;49.680;20.074;2023-06-10T02:58:35;96885.14;;;15.47;87.30
34205;BME280;20471;49.680;20.074;2023-06-10T03:01:03;96884.21;;;15.47;87.56
34205;BME280;20471;49.680;20.074;2023-06-10T03:03:31;96888.81;;;15.49;87.35
34205;BME280;20471;49.680;20.074;2023-06-10T03:06:20;96893.14;;;15.52;87.43
34205;BME280;20471;49.680;20.074;2023-06-10T03:08:51;96897.29;;;15.53;87.35
34205;BME280;20471;49.680;20.074;2023-06-10T03:11:19;96901.48;;;15.53;87.35
34205;BME280;20471;49.680;20.074;2023-06-10T03:13:47;96903.06;;;15.53;87.58
34205;BME280;20471;49.680;20.074;2023-06-10T03:16:15;96902.05;;;15.54;87.65
34205;BME280;20471;49.680;20.074;2023-06-10T03:18:43;96905.21;;;15.57;87.69
34205;BME280;20471;49.680;20.074;2023-06-10T03:21:12;96907.00;;;15.59;87.51
34205;BME280;20471;49.680;20.074;2023-06-10T03:23:40;96905.13;;;15.61;87.61
34205;BME280;20471;49.680;20.074;2023-06-10T03:26:08;96904.20;;;15.65;87.62
34205;BME280;20471;49.680;20.074;2023-06-10T03:28:36;96902.51;;;15.68;87.58
34205;BME280;20471;49.680;20.074;2023-06-10T03:31:04;96901.77;;;15.72;87.55
34205;BME280;20471;49.680;20.074;2023-06-10T03:33:32;96902.15;;;15.73;87.61
34205;BME280;20471;49.680;20.074;2023-06-10T03:36:00;96903.11;;;15.71;87.64
34205;BME280;20471;49.680;20.074;2023-06-10T03:38:28;96902.84;;;15.71;87.62
34205;BME280;20471;49.680;20.074;2023-06-10T03:40:56;96904.86;;;15.72;87.62
34205;BME280;20471;49.680;20.074;2023-06-10T03:43:24;96904.92;;;15.72;87.68
34205;BME280;20471;49.680;20.074;2023-06-10T03:45:53;96907.48;;;15.72;87.85
34205;BME280;20471;49.680;20.074;2023-06-10T03:48:21;96914.19;;;15.73;87.91
34205;BME280;20471;49.680;20.074;2023-06-10T03:50:49;96913.91;;;15.77;87.85
34205;BME280;20471;49.680;20.074;2023-06-10T03:53:18;96914.51;;;15.82;87.91
34205;BME280;20471;49.680;20.074;2023-06-10T03:55:46;96912.48;;;15.87;87.90
34205;BME280;20471;49.680;20.074;2023-06-10T03:58:14;96918.19;;;15.90;87.66
34205;BME280;20471;49.680;20.074;2023-06-10T04:00:44;96914.34;;;15.94;87.77
34205;BME280;20471;49.680;20.074;2023-06-10T04:03:13;96914.96;;;15.96;87.70
34205;BME280;20471;49.680;20.074;2023-06-10T04:05:42;96919.16;;;16.01;87.66
34205;BME280;20471;49.680;20.074;2023-06-10T04:08:10;96920.45;;;16.05;87.57
34205;BME280;20471;49.680;20.074;2023-06-10T04:10:39;96921.50;;;16.08;87.62
34205;BME280;20471;49.680;20.074;2023-06-10T04:13:07;96921.69;;;16.10;87.80
34205;BME280;20471;49.680;20.074;2023-06-10T04:15:36;96921.09;;;16.09;87.67
34205;BME280;20471;49.680;20.074;2023-06-10T04:18:04;96918.61;;;16.08;87.72
34205;BME280;20471;49.680;20.074;2023-06-10T04:20:32;96914.66;;;16.10;87.69
34205;BME280;20471;49.680;20.074;2023-06-10T04:23:00;96917.70;;;16.13;87.68
34205;BME280;20471;49.680;20.074;2023-06-10T04:25:28;96915.77;;;16.16;87.50
34205;BME280;20471;49.680;20.074;2023-06-10T04:27:56;96913.66;;;16.19;87.38
34205;BME280;20471;49.680;20.074;2023-06-10T04:30:25;96915.55;;;16.23;87.62
34205;BME280;20471;49.680;20.074;2023-06-10T04:32:53;96917.81;;;16.26;87.62
34205;BME280;20471;49.680;20.074;2023-06-10T04:35:21;96915.28;;;16.29;87.38
34205;BME280;20471;49.680;20.074;2023-06-10T04:37:49;96917.67;;;16.31;87.46
34205;BME280;20471;49.680;20.074;2023-06-10T04:40:17;96916.95;;;16.34;87.41
34205;BME280;20471;49.680;20.074;2023-06-10T04:42:46;96921.34;;;16.38;87.50
34205;BME280;20471;49.680;20.074;2023-06-10T04:45:14;96922.69;;;16.41;87.61
34205;BME280;20471;49.680;20.074;2023-06-10T04:47:42;96922.42;;;16.45;87.58
34205;BME280;20471;49.680;20.074;2023-06-10T04:50:10;96926.11;;;16.48;87.45
34205;BME280;20471;49.680;20.074;2023-06-10T04:52:38;96921.90;;;16.53;87.32
34205;BME280;20471;49.680;20.074;2023-06-10T04:55:08;96924.89;;;16.59;87.32
34205;BME280;20471;49.680;20.074;2023-06-10T04:57:36;96924.20;;;16.65;87.50
34205;BME280;20471;49.680;20.074;2023-06-10T05:00:05;96926.25;;;16.70;87.28
34205;BME280;20471;49.680;20.074;2023-06-10T05:02:33;96929.13;;;16.73;86.94
34205;BME280;20471;49.680;20.074;2023-06-10T05:05:01;96932.73;;;16.76;86.90
34205;BME280;20471;49.680;20.074;2023-06-10T05:07:30;96932.04;;;16.76;86.94
34205;BME280;20471;49.680;20.074;2023-06-10T05:09:58;96931.77;;;16.77;86.96
34205;BME280;20471;49.680;20.074;2023-06-10T05:12:26;96938.14;;;16.76;86.96
34205;BME280;20471;49.680;20.074;2023-06-10T05:14:54;96938.55;;;16.74;87.15
34205;BME280;20471;49.680;20.074;2023-06-10T05:17:23;96943.11;;;16.77;87.05
34205;BME280;20471;49.680;20.074;2023-06-10T05:19:51;96942.13;;;16.79;87.16
34205;BME280;20471;49.680;20.074;2023-06-10T05:22:20;96945.08;;;16.82;87.18
34205;BME280;20471;49.680;20.074;2023-06-10T05:24:50;96946.36;;;16.84;87.26
34205;BME280;20471;49.680;20.074;2023-06-10T05:27:19;96944.98;;;16.88;87.23
34205;BME280;20471;49.680;20.074;2023-06-10T05:29:47;96948.05;;;16.92;87.19
34205;BME280;20471;49.680;20.074;2023-06-10T05:32:16;96950.25;;;16.96;87.27
34205;BME280;20471;49.680;20.074;2023-06-10T05:34:44;96946.70;;;17.00;87.33
34205;BME280;20471;49.680;20.074;2023-06-10T05:37:12;96948.27;;;17.04;87.29
34205;BME280;20471;49.680;20.074;2023-06-10T05:39:41;96947.38;;;17.07;87.42
34205;BME280;20471;49.680;20.074;2023-06-10T05:42:09;96946.16;;;17.12;87.45
34205;BME280;20471;49.680;20.074;2023-06-10T05:44:37;96947.27;;;17.16;87.33
34205;BME280;20471;49.680;20.074;2023-06-10T05:47:05;96950.70;;;17.23;87.19
34205;BME280;20471;49.680;20.074;2023-06-10T05:49:34;96949.14;;;17.29;87.09
34205;BME280;20471;49.680;20.074;2023-06-10T05:52:02;96950.80;;;17.34;87.27
34205;BME280;20471;49.680;20.074;2023-06-10T05:54:30;96949.02;;;17.40;87.07
34205;BME280;20471;49.680;20.074;2023-06-10T05:56:58;96951.03;;;17.46;87.22
34205;BME280;20471;49.680;20.074;2023-06-10T05:59:26;96954.34;;;17.55;87.02
34205;BME280;20471;49.680;20.074;2023-06-10T06:01:55;96958.83;;;17.65;87.13
34205;BME280;20471;49.680;20.074;2023-06-10T06:04:23;96957.95;;;17.74;87.28
34205;BME280;20471;49.680;20.074;2023-06-10T06:06:51;96953.30;;;17.79;87.12
34205;BME280;20471;49.680;20.074;2023-06-10T06:09:19;96954.84;;;17.81;86.99
34205;BME280;20471;49.680;20.074;2023-06-10T06:11:47;96957.04;;;17.82;86.84
34205;BME280;20471;49.680;20.074;2023-06-10T06:14:15;96960.05;;;17.84;87.13
34205;BME280;20471;49.680;20.074;2023-06-10T06:16:43;96953.73;;;17.87;87.07
34205;BME280;20471;49.680;20.074;2023-06-10T06:19:12;96951.21;;;17.90;86.95
34205;BME280;20471;49.680;20.074;2023-06-10T06:21:40;96951.02;;;17.94;86.84
34205;BME280;20471;49.680;20.074;2023-06-10T06:24:08;96950.31;;;17.98;86.66
34205;BME280;20471;49.680;20.074;2023-06-10T06:26:36;96949.66;;;18.03;86.49
34205;BME280;20471;49.680;20.074;2023-06-10T06:29:04;96947.74;;;18.02;86.29
34205;BME280;20471;49.680;20.074;2023-06-10T06:31:32;96954.36;;;18.03;86.35
34205;BME280;20471;49.680;20.074;2023-06-10T06:34:00;96955.69;;;18.07;86.23
34205;BME280;20471;49.680;20.074;2023-06-10T06:36:28;96956.09;;;18.10;86.14
34205;BME280;20471;49.680;20.074;2023-06-10T06:38:56;96959.27;;;18.10;86.01
34205;BME280;20471;49.680;20.074;2023-06-10T06:41:28;96960.55;;;18.13;86.05
34205;BME280;20471;49.680;20.074;2023-06-10T06:43:56;96961.49;;;18.17;86.16
34205;BME280;20471;49.680;20.074;2023-06-10T06:46:24;96964.84;;;18.20;85.77
34205;BME280;20471;49.680;20.074;2023-06-10T06:48:52;96965.17;;;18.21;85.53
34205;BME280;20471;49.680;20.074;2023-06-10T06:51:20;96966.75;;;18.24;85.56
34205;BME280;20471;49.680;20.074;2023-06-10T06:53:48;96966.48;;;18.29;85.35
34205;BME280;20471;49.680;20.074;2023-06-10T06:56:17;96971.52;;;18.32;85.35
34205;BME280;20471;49.680;20.074;2023-06-10T06:58:45;96974.59;;;18.38;85.37
34205;BME280;20471;49.680;20.074;2023-06-10T07:01:13;96969.14;;;18.45;85.45
34205;BME280;20471;49.680;20.074;2023-06-10T07:03:42;96973.04;;;18.56;85.57
34205;BME280;20471;49.680;20.074;2023-06-10T07:06:10;96976.44;;;18.62;85.31
34205;BME280;20471;49.680;20.074;2023-06-10T07:08:38;96977.48;;;18.67;84.95
34205;BME280;20471;49.680;20.074;2023-06-10T07:11:06;96981.41;;;18.74;84.84
34205;BME280;20471;49.680;20.074;2023-06-10T07:13:35;96984.48;;;18.78;84.49
34205;BME280;20471;49.680;20.074;2023-06-10T07:16:03;96989.35;;;18.78;84.20
34205;BME280;20471;49.680;20.074;2023-06-10T07:18:31;96994.54;;;18.75;83.94
34205;BME280;20471;49.680;20.074;2023-06-10T07:21:00;96989.35;;;18.73;83.89
34205;BME280;20471;49.680;20.074;2023-06-10T07:23:28;96990.39;;;18.67;83.66
34205;BME280;20471;49.680;20.074;2023-06-10T07:25:56;96996.27;;;18.59;83.55
34205;BME280;20471;49.680;20.074;2023-06-10T07:28:25;96989.63;;;18.51;83.51
34205;BME280;20471;49.680;20.074;2023-06-10T07:30:53;96994.33;;;18.45;83.82
34205;BME280;20471;49.680;20.074;2023-06-10T07:33:21;96998.41;;;18.39;83.76
34205;BME280;20471;49.680;20.074;2023-06-10T07:35:49;96994.59;;;18.33;83.68
34205;BME280;20471;49.680;20.074;2023-06-10T07:38:17;96992.56;;;18.33;83.83
34205;BME280;20471;49.680;20.074;2023-06-10T07:40:46;96998.96;;;18.32;83.95
34205;BME280;20471;49.680;20.074;2023-06-10T07:43:14;97003.65;;;18.31;83.87
34205;BME280;20471;49.680;20.074;2023-06-10T07:45:43;97006.45;;;18.32;83.92
34205;BME280;20471;49.680;20.074;2023-06-10T07:48:11;97005.85;;;18.34;83.97
34205;BME280;20471;49.680;20.074;2023-06-10T07:50:39;97010.00;;;18.34;83.78
34205;BME280;20471;49.680;20.074;2023-06-10T07:53:07;97010.97;;;18.31;83.77
34205;BME280;20471;49.680;20.074;2023-06-10T07:55:35;97013.48;;;18.31;83.99
34205;BME280;20471;49.680;20.074;2023-06-10T07:58:03;97013.66;;;18.34;84.18
34205;BME280;20471;49.680;20.074;2023-06-10T08:00:32;97017.01;;;18.46;84.72
34205;BME280;20471;49.680;20.074;2023-06-10T08:03:00;97016.67;;;18.66;84.83
34205;BME280;20471;49.680;20.074;2023-06-10T08:05:28;97018.77;;;18.91;84.78
34205;BME280;20471;49.680;20.074;2023-06-10T08:07:57;97020.04;;;19.30;85.03
34205;BME280;20471;49.680;20.074;2023-06-10T08:10:25;97026.33;;;19.69;84.97
34205;BME280;20471;49.680;20.074;2023-06-10T08:12:53;97027.52;;;20.03;84.41
34205;BME280;20471;49.680;20.074;2023-06-10T08:15:22;97023.04;;;20.25;83.64
34205;BME280;20471;49.680;20.074;2023-06-10T08:17:50;97021.11;;;20.65;83.29
34205;BME280;20471;49.680;20.074;2023-06-10T08:20:18;97024.41;;;21.21;83.18
34205;BME280;20471;49.680;20.074;2023-06-10T08:22:46;97029.55;;;21.63;81.88
34205;BME280;20471;49.680;20.074;2023-06-10T08:25:14;97029.95;;;21.77;80.54
34205;BME280;20471;49.680;20.074;2023-06-10T08:27:43;97029.53;;;21.65;79.52
34205;BME280;20471;49.680;20.074;2023-06-10T08:30:11;97028.86;;;21.51;78.80
34205;BME280;20471;49.680;20.074;2023-06-10T08:32:40;97030.17;;;21.40;78.58
34205;BME280;20471;49.680;20.074;2023-06-10T08:35:08;97028.39;;;21.33;78.27
34205;BME280;20471;49.680;20.074;2023-06-10T08:37:36;97028.98;;;21.19;77.81
34205;BME280;20471;49.680;20.074;2023-06-10T08:40:04;97032.67;;;21.03;77.61
34205;BME280;20471;49.680;20.074;2023-06-10T08:45:36;97033.83;;;20.75;77.34
34205;BME280;20471;49.680;20.074;2023-06-10T08:48:05;97037.42;;;20.54;77.07
34205;BME280;20471;49.680;20.074;2023-06-10T08:50:35;97037.15;;;20.44;77.13
34205;BME280;20471;49.680;20.074;2023-06-10T08:53:07;97033.20;;;20.42;77.39
34205;BME280;20471;49.680;20.074;2023-06-10T08:55:36;97033.48;;;20.42;77.55
34205;BME280;20471;49.680;20.074;2023-06-10T08:58:06;97022.56;;;20.42;77.29
34205;BME280;20471;49.680;20.074;2023-06-10T09:00:34;97023.86;;;20.47;77.34
34205;BME280;20471;49.680;20.074;2023-06-10T09:03:04;97019.09;;;20.51;77.32
34205;BME280;20471;49.680;20.074;2023-06-10T09:05:35;97021.85;;;20.53;77.46
34205;BME280;20471;49.680;20.074;2023-06-10T09:08:07;97019.69;;;20.58;77.37
34205;BME280;20471;49.680;20.074;2023-06-10T09:10:36;97021.27;;;20.64;77.19
34205;BME280;20471;49.680;20.074;2023-06-10T09:13:05;97026.50;;;20.65;76.96
34205;BME280;20471;49.680;20.074;2023-06-10T09:15:33;97027.77;;;20.63;76.88
34205;BME280;20471;49.680;20.074;2023-06-10T09:18:01;97028.80;;;20.56;76.41
34205;BME280;20471;49.680;20.074;2023-06-10T09:20:31;97029.25;;;20.54;76.33
34205;BME280;20471;49.680;20.074;2023-06-10T09:23:00;97025.14;;;20.63;76.85
34205;BME280;20471;49.680;20.074;2023-06-10T09:25:38;97026.26;;;20.81;77.12
34205;BME280;20471;49.680;20.074;2023-06-10T09:28:13;97023.87;;;20.99;76.79
34205;BME280;20471;49.680;20.074;2023-06-10T09:30:41;97024.18;;;21.08;76.30
34205;BME280;20471;49.680;20.074;2023-06-10T09:33:14;97023.29;;;21.16;75.88
34205;BME280;20471;49.680;20.074;2023-06-10T09:35:47;97026.30;;;21.33;75.86
34205;BME280;20471;49.680;20.074;2023-06-10T09:38:22;97025.10;;;21.42;75.51
34205;BME280;20471;49.680;20.074;2023-06-10T09:40:54;97028.96;;;21.50;75.24
34205;BME280;20471;49.680;20.074;2023-06-10T09:43:23;97021.94;;;21.55;74.95
34205;BME280;20471;49.680;20.074;2023-06-10T09:45:55;97029.02;;;21.51;74.70
34205;BME280;20471;49.680;20.074;2023-06-10T09:48:24;97025.05;;;21.43;74.22
34205;BME280;20471;49.680;20.074;2023-06-10T09:50:53;97025.04;;;21.32;73.99
34205;BME280;20471;49.680;20.074;2023-06-10T09:53:21;97024.88;;;21.26;74.01
34205;BME280;20471;49.680;20.074;2023-06-10T09:55:52;97023.93;;;21.22;73.80
34205;BME280;20471;49.680;20.074;2023-06-10T09:58:34;97019.48;;;21.23;73.83
34205;BME280;20471;49.680;20.074;2023-06-10T10:01:09;97017.82;;;21.61;74.70
34205;BME280;20471;49.680;20.074;2023-06-10T10:03:49;97018.46;;;22.15;74.89
34205;BME280;20471;49.680;20.074;2023-06-10T10:06:18;97018.04;;;22.66;74.58
34205;BME280;20471;49.680;20.074;2023-06-10T10:08:50;97012.91;;;23.15;73.68
34205;BME280;20471;49.680;20.074;2023-06-10T10:11:20;97009.13;;;23.46;72.76
34205;BME280;20471;49.680;20.074;2023-06-10T10:13:52;97008.91;;;23.81;72.63
34205;BME280;20471;49.680;20.074;2023-06-10T10:16:30;97007.49;;;24.13;71.86
34205;BME280;20471;49.680;20.074;2023-06-10T10:19:18;97007.46;;;24.11;70.00
34205;BME280;20471;49.680;20.074;2023-06-10T10:21:53;97007.09;;;23.84;69.03
34205;BME280;20471;49.680;20.074;2023-06-10T10:24:32;97007.41;;;23.62;69.19
34205;BME280;20471;49.680;20.074;2023-06-10T10:27:05;97005.81;;;23.71;69.63
34205;BME280;20471;49.680;20.074;2023-06-10T10:29:39;97006.44;;;24.06;69.81
34205;BME280;20471;49.680;20.074;2023-06-10T10:32:08;97004.45;;;24.27;68.40
34205;BME280;20471;49.680;20.074;2023-06-10T10:35:10;97001.29;;;24.36;67.67
34205;BME280;20471;49.680;20.074;2023-06-10T10:37:40;97003.98;;;24.44;67.59
34205;BME280;20471;49.680;20.074;2023-06-10T10:40:10;97002.77;;;24.54;67.46
34205;BME280;20471;49.680;20.074;2023-06-10T10:42:40;97000.85;;;24.53;67.47
34205;BME280;20471;49.680;20.074;2023-06-10T10:45:09;96999.97;;;24.33;66.87
34205;BME280;20471;49.680;20.074;2023-06-10T10:47:38;96997.42;;;24.44;65.74
34205;BME280;20471;49.680;20.074;2023-06-10T10:50:17;96993.77;;;24.68;66.22
34205;BME280;20471;49.680;20.074;2023-06-10T10:53:06;96992.60;;;24.75;65.71
34205;BME280;20471;49.680;20.074;2023-06-10T10:55:34;96997.61;;;24.64;64.98
34205;BME280;20471;49.680;20.074;2023-06-10T10:58:07;96995.61;;;24.44;64.66
34205;BME280;20471;49.680;20.074;2023-06-10T11:00:43;96994.67;;;24.15;64.33
34205;BME280;20471;49.680;20.074;2023-06-10T11:03:14;96992.69;;;23.93;64.52
34205;BME280;20471;49.680;20.074;2023-06-10T11:05:47;96993.98;;;23.84;65.26
34205;BME280;20471;49.680;20.074;2023-06-10T11:11:36;96989.21;;;23.85;65.15
34205;BME280;20471;49.680;20.074;2023-06-10T11:14:27;96989.67;;;23.77;65.50
34205;BME280;20471;49.680;20.074;2023-06-10T11:16:59;96985.90;;;23.69;65.64
34205;BME280;20471;49.680;20.074;2023-06-10T11:19:37;96987.34;;;23.64;65.79
34205;BME280;20471;49.680;20.074;2023-06-10T11:22:07;96981.79;;;23.82;66.39
34205;BME280;20471;49.680;20.074;2023-06-10T11:24:37;96975.91;;;24.15;65.98
34205;BME280;20471;49.680;20.074;2023-06-10T11:27:15;96977.98;;;24.26;64.62
34205;BME280;20471;49.680;20.074;2023-06-10T11:32:33;96969.88;;;24.17;63.58
34205;BME280;20471;49.680;20.074;2023-06-10T11:35:04;96970.84;;;24.07;63.72
34205;BME280;20471;49.680;20.074;2023-06-10T11:37:33;96971.93;;;23.97;63.62
34205;BME280;20471;49.680;20.074;2023-06-10T11:40:02;96975.60;;;23.88;63.56
34205;BME280;20471;49.680;20.074;2023-06-10T11:42:30;96975.27;;;23.80;63.44
34205;BME280;20471;49.680;20.074;2023-06-10T11:44:59;96976.06;;;23.68;63.63
34205;BME280;20471;49.680;20.074;2023-06-10T11:47:29;96984.83;;;23.50;63.55
34205;BME280;20471;49.680;20.074;2023-06-10T11:49:58;96988.08;;;23.34;63.81
34205;BME280;20471;49.680;20.074;2023-06-10T11:52:30;96997.11;;;23.16;63.97
34205;BME280;20471;49.680;20.074;2023-06-10T11:55:00;97004.86;;;22.94;63.96
34205;BME280;20471;49.680;20.074;2023-06-10T11:57:29;97012.91;;;22.71;63.90
34205;BME280;20471;49.680;20.074;2023-06-10T12:00:04;97014.68;;;22.35;63.86
34205;BME280;20471;49.680;20.074;2023-06-10T12:02:32;97012.34;;;22.09;64.41
34205;BME280;20471;49.680;20.074;2023-06-10T12:05:12;97013.38;;;21.90;65.14
34205;BME280;20471;49.680;20.074;2023-06-10T12:07:40;97013.11;;;21.64;65.58
34205;BME280;20471;49.680;20.074;2023-06-10T12:10:08;97012.66;;;21.35;65.95
34205;BME280;20471;49.680;20.074;2023-06-10T12:12:37;97012.21;;;21.16;66.61
34205;BME280;20471;49.680;20.074;2023-06-10T12:15:05;97006.09;;;20.86;66.64
34205;BME280;20471;49.680;20.074;2023-06-10T12:20:08;97008.67;;;20.37;68.01
34205;BME280;20471;49.680;20.074;2023-06-10T12:22:43;97014.91;;;20.28;68.80
34205;BME280;20471;49.680;20.074;2023-06-10T12:25:11;97016.58;;;20.23;69.09
34205;BME280;20471;49.680;20.074;2023-06-10T12:27:51;97022.28;;;20.11;69.31
34205;BME280;20471;49.680;20.074;2023-06-10T12:30:21;97024.08;;;20.03;69.93
34205;BME280;20471;49.680;20.074;2023-06-10T12:32:50;97020.98;;;19.99;70.30
34205;BME280;20471;49.680;20.074;2023-06-10T12:35:20;97021.09;;;19.94;70.55
34205;BME280;20471;49.680;20.074;2023-06-10T12:37:58;97025.53;;;19.94;70.74
34205;BME280;20471;49.680;20.074;2023-06-10T12:40:29;97029.38;;;19.92;71.07
34205;BME280;20471;49.680;20.074;2023-06-10T12:42:58;97026.67;;;19.83;71.04
34205;BME280;20471;49.680;20.074;2023-06-10T12:45:28;97022.95;;;19.82;71.67
34205;BME280;20471;49.680;20.074;2023-06-10T12:48:22;97015.43;;;19.84;72.03
34205;BME280;20471;49.680;20.074;2023-06-10T12:50:52;97018.39;;;19.85;72.19
34205;BME280;20471;49.680;20.074;2023-06-10T12:53:21;97021.14;;;19.80;71.80
34205;BME280;20471;49.680;20.074;2023-06-10T12:55:51;97024.21;;;19.63;71.85
34205;BME280;20471;49.680;20.074;2023-06-10T12:58:19;97024.25;;;19.52;72.74
34205;BME280;20471;49.680;20.074;2023-06-10T13:00:48;97026.26;;;19.56;73.28
34205;BME280;20471;49.680;20.074;2023-06-10T13:03:19;97029.75;;;19.61;73.48
34205;BME280;20471;49.680;20.074;2023-06-10T13:05:47;97033.75;;;19.64;73.57
34205;BME280;20471;49.680;20.074;2023-06-10T13:08:15;97037.52;;;19.66;73.40
34205;BME280;20471;49.680;20.074;2023-06-10T13:10:44;97040.59;;;19.63;73.64
34205;BME280;20471;49.680;20.074;2023-06-10T13:13:12;97039.55;;;19.62;73.89
34205;BME280;20471;49.680;20.074;2023-06-10T13:15:41;97035.89;;;19.65;73.98